CNZ7 weather

Hanover (District Hospital) Heliport
Hanover, Ontario, Canada

Public forecast

Using degrees Celsius for public forecast. Weather courtesy of forecast.io.

Closest aviation weather report (METAR) to Hanover (District Hospital) Heliport

Closest report is Wiarton Airport, 36.5 nm (67.6 km) N. Retrieved 2020/01/26 14:00 UTC (14 minutes ago):

CYVV 261400Z 26007G15KT 12SM OVC012 02/01 A2965 RMK SF8 SLP052

Closest aviation forecast (TAF) to Hanover (District Hospital) Heliport

Closest forecast is Wiarton Airport, 36.5 nm (67.6 km) N. Retrieved 2020/01/26 14:00 UTC (14 minutes ago):

TAF CYVV 261338Z 2614/2624 26010KT 6SM -DZ BR OVC015 TEMPO 2614/2624 3SM -RASN OVC007 RMK NXT FCST BY 262000Z